Time;durP1;ratioP1;P1;durP2;ratioP2;P2;SDS_P1;SDS_P2;PMS_P1;PMS_P2;Temp;Humidity;BMP_temperature;BMP_pressure;BME280_temperature;BME280_humidity;BME280_pressure;Samples;Min_cycle;Max_cycle;Signal;HPM_P1;HPM_P2
2022/02/02 00:03:52;;;;;;;3.90;1.67;;;;;;;6.52;88.62;98348.61;2920758;80;21058;-68
2022/02/02 00:08:01;;;;;;;5.15;2.92;;;;;;;6.53;88.30;98338.38;2920905;80;20986;-70
2022/02/02 00:16:24;;;;;;;4.20;2.05;;;;;;;6.53;88.98;98359.52;2921046;81;20166;-70
2022/02/02 00:20:24;;;;;;;7.75;2.65;;;;;;;6.45;88.47;98361.56;2921493;80;21587;-69
2022/02/02 00:24:36;;;;;;;4.30;1.98;;;;;;;6.51;88.10;98345.63;2920271;80;21026;-69
2022/02/02 00:28:34;;;;;;;3.67;2.05;;;;;;;6.56;87.71;98360.54;2921491;80;21014;-69
2022/02/02 00:36:51;;;;;;;6.10;2.58;;;;;;;6.64;87.04;98357.16;2920162;81;21504;-70
2022/02/02 00:40:50;;;;;;;10.10;3.22;;;;;;;6.68;86.98;98364.65;2921024;80;21042;-70
2022/02/02 00:44:54;;;;;;;5.25;2.22;;;;;;;6.66;86.94;98369.73;2919687;81;21599;-69
2022/02/02 00:49:03;;;;;;;7.92;2.05;;;;;;;6.55;87.25;98389.25;2920939;81;21630;-69
2022/02/02 00:53:07;;;;;;;4.80;2.05;;;;;;;6.63;87.80;98377.45;2920551;80;21070;-70
2022/02/02 00:57:09;;;;;;;6.55;1.95;;;;;;;6.50;86.97;98391.52;2920811;80;21038;-70
2022/02/02 01:01:11;;;;;;;10.35;1.85;;;;;;;6.43;86.25;98390.75;2920528;81;21038;-70
2022/02/02 01:05:14;;;;;;;4.97;1.87;;;;;;;6.33;86.26;98399.70;2919766;81;21034;-70
2022/02/02 01:21:56;;;;;;;2.47;1.80;;;;;;;5.85;86.70;98427.39;2920169;81;21026;-71
2022/02/02 01:30:09;;;;;;;4.75;1.57;;;;;;;5.99;86.65;98437.98;2920422;81;20975;-70
2022/02/02 01:34:11;;;;;;;2.50;1.87;;;;;;;5.89;86.74;98431.87;2920187;80;21026;-69
2022/02/02 01:38:14;;;;;;;3.45;1.17;;;;;;;5.84;87.36;98439.73;2920298;81;21073;-72
2022/02/02 01:42:18;;;;;;;8.35;2.25;;;;;;;5.75;87.63;98445.87;2920617;80;21041;-69
2022/02/02 01:46:20;;;;;;;5.37;2.47;;;;;;;5.75;87.43;98447.19;2920040;80;21041;-69
2022/02/02 01:50:23;;;;;;;7.35;2.65;;;;;;;5.73;87.72;98430.67;2920965;81;20987;-71
2022/02/02 02:02:52;;;;;;;3.22;1.65;;;;;;;5.91;87.06;98453.70;2903342;81;21081;-69
2022/02/02 02:06:54;;;;;;;5.08;1.98;;;;;;;6.07;86.74;98442.58;2917470;81;21006;-70
2022/02/02 02:10:55;;;;;;;6.28;2.25;;;;;;;6.05;86.42;98431.34;2917510;81;21407;-69
2022/02/02 02:15:02;;;;;;;3.37;1.60;;;;;;;6.03;86.85;98464.46;2917170;81;20995;-70
2022/02/02 02:19:01;;;;;;;10.85;2.20;;;;;;;6.05;86.85;98463.83;2917463;81;21049;-70
2022/02/02 02:23:03;;;;;;;3.72;0.90;;;;;;;5.90;87.84;98478.43;2917433;81;20998;-69
2022/02/02 02:27:05;;;;;;;1.82;1.62;;;;;;;5.75;88.75;98474.89;2916949;81;21035;-69
2022/02/02 02:31:17;;;;;;;3.80;1.77;;;;;;;5.85;88.73;98468.28;2917202;81;21015;-69
2022/02/02 02:56:11;;;;;;;4.00;1.47;;;;;;;5.80;87.85;98477.94;2919528;81;20987;-70
2022/02/02 03:29:59;;;;;;;9.03;2.55;;;;;;;5.38;91.76;98504.57;2920568;81;21046;-69
2022/02/02 03:59:39;;;;;;;8.70;4.08;;;;;;;5.47;96.60;98515.60;2919748;80;20979;-71
2022/02/02 04:03:45;;;;;;;18.40;4.42;;;;;;;5.46;96.98;98538.17;2920974;80;20987;-73
2022/02/02 04:07:51;;;;;;;13.85;3.10;;;;;;;5.46;96.70;98524.48;2920548;80;21046;-73
2022/02/02 04:54:31;;;;;;;6.58;3.33;;;;;;;5.05;96.03;98523.23;2921413;81;21663;-70
2022/02/02 04:58:39;;;;;;;7.17;4.00;;;;;;;5.01;95.64;98549.47;2921527;80;21029;-72
2022/02/02 05:11:16;;;;;;;5.90;2.42;;;;;;;4.96;95.07;98549.89;2915120;80;21446;-69
2022/02/02 05:49:21;;;;;;;20.80;3.40;;;;;;;5.20;93.82;98580.83;2920912;80;21073;-72
2022/02/02 05:53:03;;;;;;;4.83;1.65;;;;;;;5.12;93.25;98572.30;2921647;80;21032;-72
2022/02/02 05:57:14;;;;;;;7.22;2.27;;;;;;;5.17;93.18;98577.98;2919528;80;21089;-72
2022/02/02 06:01:16;;;;;;;9.35;1.95;;;;;;;5.14;92.77;98569.03;2920742;80;21563;-72
2022/02/02 06:05:19;;;;;;;5.42;1.82;;;;;;;5.16;92.85;98588.19;2920665;81;21033;-71
2022/02/02 06:09:30;;;;;;;7.05;3.05;;;;;;;5.19;93.25;98616.91;2920174;81;21582;-72
2022/02/02 06:13:41;;;;;;;6.33;2.65;;;;;;;5.20;93.15;98633.08;2920699;80;20983;-72
2022/02/02 06:17:45;;;;;;;6.25;3.55;;;;;;;5.19;93.50;98628.77;2921001;80;21018;-72
2022/02/02 06:21:53;;;;;;;23.10;3.35;;;;;;;5.23;93.48;98624.08;2921108;79;20970;-71
2022/02/02 06:25:59;;;;;;;10.40;3.62;;;;;;;5.22;92.95;98651.41;2919562;80;21014;-71
2022/02/02 06:30:09;;;;;;;12.68;3.35;;;;;;;5.33;92.52;98635.98;2921140;80;21015;-72
2022/02/02 06:34:14;;;;;;;8.43;2.98;;;;;;;5.27;91.87;98639.98;2921193;81;21026;-73
2022/02/02 06:38:16;;;;;;;3.25;1.65;;;;;;;5.22;91.55;98647.45;2920716;80;21018;-73
2022/02/02 06:42:18;;;;;;;4.72;2.50;;;;;;;5.11;91.18;98660.21;2919483;81;21018;-72
2022/02/02 06:46:30;;;;;;;13.35;3.10;;;;;;;5.17;90.42;98671.57;2919864;81;21875;-72
2022/02/02 06:50:30;;;;;;;5.62;2.80;;;;;;;5.14;90.54;98686.34;2920561;80;21393;-72
2022/02/02 06:54:52;;;;;;;5.92;3.20;;;;;;;5.08;90.83;98698.23;2920857;80;21034;-72
2022/02/02 06:59:23;;;;;;;6.03;2.77;;;;;;;5.07;91.53;98687.80;2918898;80;21006;-73
2022/02/02 07:03:29;;;;;;;8.23;3.10;;;;;;;5.05;92.75;98701.12;2919147;80;21026;-73
2022/02/02 07:20:17;;;;;;;4.58;2.65;;;;;;;5.19;92.01;98722.36;2927125;80;21015;-72
2022/02/02 07:28:20;;;;;;;;;;;;;;;5.08;92.46;98729.00;2974979;79;21026;-73
2022/02/02 07:32:18;;;;;;;4.75;2.08;;;;;;;5.15;92.94;98742.86;2971294;79;20189;-73
2022/02/02 07:36:30;;;;;;;6.67;2.98;;;;;;;5.12;92.66;98747.58;2972395;79;21023;-71
2022/02/02 07:40:27;;;;;;;9.70;4.10;;;;;;;5.08;92.22;98748.77;2972029;79;21027;-72
2022/02/02 07:44:32;;;;;;;4.85;2.25;;;;;;;5.08;91.90;98750.09;2972559;79;21384;-72
2022/02/02 07:48:40;;;;;;;7.53;2.40;;;;;;;5.02;91.54;98763.79;2972829;79;21033;-71
2022/02/02 07:52:44;;;;;;;9.23;3.60;;;;;;;5.10;91.93;98763.97;2972630;79;21026;-73
2022/02/02 07:56:47;;;;;;;11.10;4.05;;;;;;;5.16;91.69;98772.70;2972313;79;21080;-72
2022/02/02 08:00:49;;;;;;;10.20;4.10;;;;;;;5.22;91.79;98785.37;2972893;79;21074;-72
2022/02/02 08:04:50;;;;;;;11.20;5.40;;;;;;;5.31;91.26;98780.30;2972675;79;20963;-72
2022/02/02 08:08:52;;;;;;;17.45;6.08;;;;;;;5.50;90.90;98783.52;2972708;80;21018;-72
2022/02/02 08:12:58;;;;;;;11.73;5.33;;;;;;;5.60;90.79;98796.77;2972865;80;20995;-71
2022/02/02 08:16:57;;;;;;;14.55;5.45;;;;;;;5.61;90.37;98780.83;2972582;80;21023;-72
2022/02/02 08:20:59;;;;;;;22.37;6.62;;;;;;;5.63;90.27;98788.59;2972983;79;21006;-71
2022/02/02 08:25:03;;;;;;;11.22;4.42;;;;;;;5.75;90.60;98793.30;2973416;79;21038;-71
2022/02/02 08:29:04;;;;;;;18.27;4.87;;;;;;;5.67;90.36;98803.18;2973036;79;21006;-72
2022/02/02 08:33:08;;;;;;;18.48;5.33;;;;;;;5.72;90.45;98789.14;2972997;80;21046;-72
2022/02/02 08:37:09;;;;;;;19.45;5.65;;;;;;;5.69;89.75;98802.56;2973027;79;20990;-73
2022/02/02 08:41:15;;;;;;;20.08;4.45;;;;;;;5.74;89.04;98837.33;2972851;80;21054;-72
2022/02/02 08:45:27;;;;;;;16.50;3.87;;;;;;;5.64;89.09;98839.91;2972180;79;21481;-72
2022/02/02 08:49:28;;;;;;;12.93;4.83;;;;;;;5.51;89.59;98816.38;2971602;79;21023;-72
2022/02/02 08:53:37;;;;;;;10.50;5.12;;;;;;;5.50;90.11;98846.36;2972108;79;21364;-71
2022/02/02 09:01:41;;;;;;;4.58;2.83;;;;;;;5.53;90.83;98886.13;2971623;80;21034;-74
2022/02/02 09:05:43;;;;;;;9.88;3.00;;;;;;;5.67;90.98;98865.18;2971658;79;21061;-73
2022/02/02 09:34:56;;;;;;;6.55;3.08;;;;;;;6.06;88.18;98878.63;2972947;80;21078;-73
2022/02/02 09:39:04;;;;;;;9.03;2.25;;;;;;;6.11;87.58;98865.89;2973064;79;21101;-72
2022/02/02 09:43:04;;;;;;;7.20;3.22;;;;;;;6.24;86.73;98876.69;2972320;79;20975;-72
2022/02/02 09:47:16;;;;;;;5.87;3.00;;;;;;;6.37;88.36;98894.48;2973496;79;21038;-73
2022/02/02 09:51:13;;;;;;;13.18;3.60;;;;;;;6.46;86.35;98899.45;2971956;79;21034;-71
2022/02/02 09:55:20;;;;;;;8.93;3.58;;;;;;;6.53;85.70;98898.44;2972871;79;21058;-69
2022/02/02 09:59:27;;;;;;;16.02;4.17;;;;;;;6.69;84.69;98925.19;2972473;79;21019;-69
2022/02/02 10:03:35;;;;;;;17.65;5.12;;;;;;;6.66;84.48;98936.00;2971543;79;21028;-69
2022/02/02 10:07:34;;;;;;;13.80;4.80;;;;;;;6.62;84.78;98922.72;2972212;79;21019;-69
2022/02/02 10:15:39;;;;;;;16.70;4.05;;;;;;;6.47;84.24;98909.05;2973040;80;21018;-69
2022/02/02 10:19:41;;;;;;;12.05;3.95;;;;;;;6.62;85.44;98913.47;2974080;79;21054;-70
2022/02/02 10:23:43;;;;;;;7.17;3.95;;;;;;;6.55;84.16;98909.70;2973553;80;21030;-70
2022/02/02 10:27:46;;;;;;;10.38;3.98;;;;;;;6.55;84.46;98913.66;2973754;78;21026;-69
2022/02/02 10:31:51;;;;;;;12.98;3.92;;;;;;;6.48;84.35;98908.54;2972784;80;20968;-69
2022/02/02 10:35:59;;;;;;;13.30;5.03;;;;;;;6.51;84.26;98897.73;2973273;79;20991;-68
2022/02/02 10:40:00;;;;;;;7.70;3.98;;;;;;;6.48;85.84;98913.83;2972605;79;21058;-69
2022/02/02 10:44:07;;;;;;;16.27;4.17;;;;;;;6.40;86.23;98925.08;2972304;79;21054;-69
2022/02/02 10:48:18;;;;;;;11.08;3.95;;;;;;;6.39;86.79;98881.97;2971534;79;21631;-69
2022/02/02 10:56:38;;;;;;;;;;;;;;;6.63;84.85;98907.21;2975324;80;20988;-69
2022/02/02 11:00:53;;;;;;;13.40;5.53;;;;;;;6.60;84.10;98939.19;2971583;79;20133;-69
2022/02/02 11:08:57;;;;;;;13.53;3.65;;;;;;;6.70;84.60;98920.26;2972576;79;20959;-68
2022/02/02 11:12:59;;;;;;;8.83;4.75;;;;;;;6.61;84.20;98889.34;2972563;79;21014;-69
2022/02/02 11:17:42;;;;;;;14.18;4.15;;;;;;;6.67;86.08;98936.36;2972570;80;21026;-68
2022/02/02 11:21:44;;;;;;;8.58;3.35;;;;;;;6.48;87.14;98948.17;2971136;80;21422;-70
2022/02/02 11:25:59;;;;;;;9.30;3.50;;;;;;;6.00;89.60;98963.59;2972716;80;21507;-70
2022/02/02 11:30:04;;;;;;;7.15;4.12;;;;;;;5.74;92.10;99008.84;2972563;79;21018;-70
2022/02/02 11:34:11;;;;;;;8.75;5.45;;;;;;;5.70;92.81;99013.52;2971944;79;20995;-70
2022/02/02 11:38:35;;;;;;;13.53;5.62;;;;;;;5.72;93.88;99026.61;2971931;79;21031;-69
2022/02/02 11:51:08;;;;;;;8.18;4.62;;;;;;;5.98;92.06;99037.62;2972509;79;21042;-69
2022/02/02 11:55:20;;;;;;;9.25;4.25;;;;;;;6.38;91.71;99043.21;2973634;80;20948;-69
2022/02/02 12:04:18;;;;;;;4.12;3.27;;;;;;;6.36;89.69;99041.19;2963268;79;21026;-69
2022/02/02 12:08:33;;;;;;;9.35;3.92;;;;;;;6.34;88.93;99045.30;2960749;80;21010;-69
2022/02/02 13:00:24;;;;;;;19.90;7.03;;;;;;;5.85;91.73;99138.09;2970118;79;20987;-70
2022/02/02 13:03:49;;;;;;;9.63;5.40;;;;;;;5.78;92.69;99171.23;2960341;80;21019;-69
2022/02/02 13:07:54;;;;;;;17.30;8.65;;;;;;;5.74;92.96;99201.47;2972329;79;20983;-71
2022/02/02 13:11:57;;;;;;;22.17;10.63;;;;;;;5.74;91.08;99194.88;2972230;79;21476;-69
2022/02/02 13:16:15;;;;;;;22.02;13.20;;;;;;;5.81;90.14;99207.93;2972492;79;20998;-69
2022/02/02 13:20:14;;;;;;;19.42;6.22;;;;;;;5.89;90.04;99214.39;2970413;79;21011;-70
2022/02/02 13:24:20;;;;;;;15.60;6.55;;;;;;;5.94;90.53;99215.70;2972254;79;21419;-68
2022/02/02 13:28:40;;;;;;;14.33;3.60;;;;;;;5.96;88.19;99224.83;2957683;80;21073;-69
2022/02/02 13:32:50;;;;;;;19.48;9.90;;;;;;;6.03;87.42;99228.69;2972970;79;21062;-69
2022/02/02 13:49:42;;;;;;;11.78;5.15;;;;;;;6.12;86.25;99268.89;2972069;79;21006;-70
2022/02/02 13:58:01;;;;;;;8.23;5.45;;;;;;;6.13;87.40;99277.17;2971312;79;21023;-69
2022/02/02 14:06:53;;;;;;;9.20;4.05;;;;;;;6.18;88.82;99292.63;2963699;80;21014;-70
2022/02/02 14:31:17;;;;;;;70.95;30.25;;;;;;;6.07;87.79;99346.28;2962746;78;21082;-69
2022/02/02 14:35:19;;;;;;;11.15;5.50;;;;;;;6.04;86.29;99359.73;2961959;79;20995;-69
2022/02/02 14:39:27;;;;;;;8.05;2.77;;;;;;;6.10;84.85;99367.66;2961098;80;21015;-70
2022/02/02 14:43:33;;;;;;;6.15;2.58;;;;;;;6.00;85.42;99352.98;2960368;79;20999;-68
2022/02/02 14:47:36;;;;;;;11.63;4.85;;;;;;;5.87;86.29;99361.02;2960350;79;21038;-69
2022/02/02 15:26:35;;;;;;;47.55;24.50;;;;;;;5.38;92.06;99510.16;2965066;80;21034;-69
2022/02/02 15:33:54;;;;;;;34.80;17.95;;;;;;;5.29;92.26;99536.71;2964302;80;21007;-69
2022/02/02 15:38:01;;;;;;;16.50;10.60;;;;;;;5.36;92.58;99549.48;2963752;79;21058;-70
2022/02/02 15:58:43;;;;;;;19.90;10.35;;;;;;;5.46;92.34;99591.38;3087069;76;22866;-72
2022/02/02 16:03:03;;;;;;;19.85;9.65;;;;;;;5.46;91.69;99599.28;3014247;78;21027;-71
2022/02/02 16:06:50;;;;;;;15.85;9.50;;;;;;;5.43;92.29;99617.52;3013917;78;20999;-71
2022/02/02 16:19:12;;;;;;;7.33;3.55;;;;;;;5.35;92.44;99662.53;3016267;78;21018;-70
2022/02/02 16:31:56;;;;;;;17.07;7.37;;;;;;;5.27;94.00;99684.16;2960798;80;21026;-73
2022/02/02 16:35:53;;;;;;;12.80;5.17;;;;;;;5.33;93.62;99696.08;2956979;79;21050;-74
2022/02/02 16:39:53;;;;;;;4.20;3.08;;;;;;;5.26;92.94;99681.16;2959903;79;21437;-74
2022/02/02 16:43:53;;;;;;;5.22;2.27;;;;;;;5.22;92.25;99684.47;2960967;79;21519;-74
2022/02/02 16:47:55;;;;;;;8.15;4.28;;;;;;;5.16;93.01;99704.67;2963900;79;21042;-75
2022/02/02 16:51:57;;;;;;;5.30;1.87;;;;;;;5.10;93.17;99743.30;2963660;79;21018;-74
2022/02/02 17:34:34;;;;;;;2.58;1.45;;;;;;;4.46;93.06;99891.50;2993691;79;21021;-69
2022/02/02 18:03:45;;;;;;;1.72;1.57;;;;;;;4.35;91.87;99937.80;2995236;79;21010;-73
2022/02/02 18:16:33;;;;;;;1.20;1.10;;;;;;;4.19;93.45;99969.95;2997520;79;21010;-67
2022/02/02 18:20:03;;;;;;;1.25;1.05;;;;;;;4.16;93.86;99964.39;2992697;79;21046;-68
2022/02/02 18:24:15;;;;;;;3.80;1.85;;;;;;;4.11;93.89;99983.09;2984003;78;21007;-68
2022/02/02 18:28:24;;;;;;;14.28;7.95;;;;;;;3.99;92.29;99997.00;2961560;79;21050;-69
2022/02/02 18:49:14;;;;;;;2.58;1.87;;;;;;;4.04;86.03;100032.27;2960477;79;21599;-78
2022/02/02 19:01:41;;;;;;;3.27;1.32;;;;;;;4.07;86.07;100084.73;3025854;77;21054;-74
2022/02/02 19:40:04;;;;;;;3.90;1.75;;;;;;;3.89;86.38;100160.30;3024985;78;21513;-76
2022/02/02 20:13:18;;;;;;;4.17;2.90;;;;;;;4.12;84.57;100214.30;3023193;78;20994;-76
2022/02/02 20:17:22;;;;;;;6.50;2.37;;;;;;;4.24;84.26;100231.19;3023004;78;21060;-77
2022/02/02 20:21:28;;;;;;;4.58;2.83;;;;;;;4.23;84.13;100230.36;3021961;77;21010;-76
2022/02/02 20:25:28;;;;;;;4.87;1.90;;;;;;;4.21;83.87;100224.78;3022200;78;21013;-75
2022/02/02 20:29:31;;;;;;;4.45;1.80;;;;;;;4.17;84.15;100231.16;3022842;77;21033;-73
2022/02/02 20:33:33;;;;;;;1.87;1.75;;;;;;;4.24;84.96;100242.59;3023069;78;21106;-74
2022/02/02 20:37:34;;;;;;;3.92;1.62;;;;;;;4.36;84.44;100250.26;3022556;78;21053;-74
2022/02/02 20:41:38;;;;;;;8.13;3.62;;;;;;;4.48;83.98;100251.80;3022563;78;21068;-77
2022/02/02 21:10:59;;;;;;;4.90;2.58;;;;;;;3.41;82.90;100279.48;3022664;78;21374;-73
2022/02/02 21:15:09;;;;;;;7.22;2.87;;;;;;;3.29;83.04;100287.55;3023874;77;21036;-75
2022/02/02 21:19:07;;;;;;;6.17;3.20;;;;;;;3.41;81.97;100288.69;3021699;78;21619;-76
2022/02/02 21:23:30;;;;;;;4.33;2.08;;;;;;;3.53;80.33;100296.41;3021085;78;21032;-72
2022/02/02 21:31:33;;;;;;;9.38;3.40;;;;;;;3.70;82.00;100320.50;3027478;77;22953;-76
2022/02/02 21:35:36;;;;;;;2.80;2.52;;;;;;;3.66;81.85;100318.52;2960442;80;21026;-74
2022/02/02 21:39:45;;;;;;;3.52;2.22;;;;;;;3.66;82.54;100318.97;2960391;79;20972;-76
2022/02/02 21:43:41;;;;;;;3.85;2.22;;;;;;;3.55;83.88;100325.66;2957982;79;21031;-69
2022/02/02 21:47:43;;;;;;;4.67;3.50;;;;;;;3.59;83.69;100321.54;2959323;80;21014;-69
2022/02/02 21:51:58;;;;;;;8.18;2.80;;;;;;;3.64;83.23;100315.56;2961459;79;21058;-68
2022/02/02 21:55:55;;;;;;;8.78;4.58;;;;;;;3.62;82.63;100327.95;2960322;79;21522;-69
2022/02/02 21:59:57;;;;;;;5.92;3.15;;;;;;;3.65;82.56;100323.84;2961160;79;20999;-68
2022/02/02 22:03:59;;;;;;;5.62;2.98;;;;;;;3.53;81.81;100327.48;2961308;80;21062;-68
2022/02/02 22:08:01;;;;;;;8.25;4.60;;;;;;;3.45;81.68;100332.30;2959585;80;21078;-69
2022/02/02 22:12:03;;;;;;;13.78;7.33;;;;;;;3.47;81.34;100335.70;2961309;79;20983;-68
2022/02/02 22:16:16;;;;;;;17.20;7.60;;;;;;;3.49;80.00;100334.32;2961880;79;21065;-68
2022/02/02 22:20:13;;;;;;;8.30;4.40;;;;;;;3.49;79.79;100332.52;2959037;79;21011;-68
2022/02/02 22:24:16;;;;;;;7.65;3.17;;;;;;;3.49;80.48;100336.95;2961694;78;21030;-68
2022/02/02 22:28:17;;;;;;;6.08;3.47;;;;;;;3.17;81.11;100346.00;2961562;79;21078;-68
2022/02/02 22:32:19;;;;;;;6.67;3.47;;;;;;;3.20;81.14;100346.70;2961630;79;21046;-68
2022/02/02 22:36:21;;;;;;;6.20;3.20;;;;;;;2.99;81.51;100348.61;2962785;79;21531;-68
2022/02/02 22:40:25;;;;;;;10.13;5.60;;;;;;;2.88;82.45;100356.19;2961662;79;21022;-68
2022/02/02 22:44:30;;;;;;;5.40;3.00;;;;;;;2.61;83.73;100366.63;2960152;79;20987;-68
2022/02/02 22:48:32;;;;;;;9.08;3.70;;;;;;;2.43;84.62;100370.50;2960510;79;21085;-68
2022/02/02 22:52:34;;;;;;;6.25;3.85;;;;;;;2.45;84.74;100370.89;2960179;79;21031;-68
2022/02/02 22:56:36;;;;;;;7.58;4.53;;;;;;;2.48;84.73;100370.73;2961696;79;20987;-68
2022/02/02 23:00:40;;;;;;;7.87;5.28;;;;;;;2.49;84.83;100371.12;2961671;80;21011;-68
2022/02/02 23:04:43;;;;;;;8.98;3.72;;;;;;;2.49;85.17;100372.44;2961235;79;21066;-68
2022/02/02 23:08:44;;;;;;;14.47;5.33;;;;;;;2.41;85.63;100374.97;2960455;80;21031;-68
2022/02/02 23:12:47;;;;;;;6.87;4.65;;;;;;;2.34;86.30;100387.98;2961467;79;20999;-68
2022/02/02 23:16:50;;;;;;;8.87;5.23;;;;;;;2.37;86.10;100391.80;2961603;79;20984;-68
2022/02/02 23:20:58;;;;;;;6.87;3.75;;;;;;;2.54;85.79;100386.20;2960026;79;21043;-68
2022/02/02 23:25:03;;;;;;;;;;;;;;;2.49;86.45;100385.57;2962848;79;21078;-68
2022/02/02 23:29:03;;;;;;;8.55;4.10;;;;;;;2.39;87.53;100395.65;2959315;80;20588;-68
2022/02/02 23:33:06;;;;;;;13.13;5.08;;;;;;;2.33;88.49;100399.87;2961230;80;21414;-68
2022/02/02 23:37:08;;;;;;;18.23;6.75;;;;;;;2.32;89.50;100408.20;2961314;79;21611;-68
2022/02/02 23:45:14;;;;;;;16.02;7.25;;;;;;;2.52;90.22;100399.86;2959911;80;21622;-68
2022/02/02 23:49:21;;;;;;;19.92;5.85;;;;;;;2.66;89.85;100402.70;2959893;79;21450;-68
2022/02/02 23:53:22;;;;;;;18.70;7.53;;;;;;;2.75;89.26;100402.73;2960138;79;21015;-68
2022/02/02 23:57:46;;;;;;;13.75;7.53;;;;;;;2.81;88.66;100414.26;2961548;79;21050;-68
